sensor_id;sensor_type;location;lat;lon;timestamp;temperature;humidity
11025;DHT22;22890;51.820;8.682;2022-07-23T00:00:15;17.00;99.90
11025;DHT22;22890;51.820;8.682;2022-07-23T00:02:43;17.00;99.90
11025;DHT22;22890;51.820;8.682;2022-07-23T00:05:10;17.00;99.90
11025;DHT22;22890;51.820;8.682;2022-07-23T00:07:37;17.20;99.90
11025;DHT22;22890;51.820;8.682;2022-07-23T00:10:04;17.00;99.90
11025;DHT22;22890;51.820;8.682;2022-07-23T00:12:31;17.00;99.90
11025;DHT22;22890;51.820;8.682;2022-07-23T00:14:58;17.00;99.90
11025;DHT22;22890;51.820;8.682;2022-07-23T00:17:24;17.00;99.90
11025;DHT22;22890;51.820;8.682;2022-07-23T00:19:51;16.90;99.90
11025;DHT22;22890;51.820;8.682;2022-07-23T00:22:19;16.90;99.90
11025;DHT22;22890;51.820;8.682;2022-07-23T00:24:46;16.90;99.90
11025;DHT22;22890;51.820;8.682;2022-07-23T00:27:32;16.80;99.90
11025;DHT22;22890;51.820;8.682;2022-07-23T00:29:59;16.90;99.90
11025;DHT22;22890;51.820;8.682;2022-07-23T00:32:25;16.80;99.90
11025;DHT22;22890;51.820;8.682;2022-07-23T00:35:12;16.90;99.90
11025;DHT22;22890;51.820;8.682;2022-07-23T00:37:39;16.90;99.90
11025;DHT22;22890;51.820;8.682;2022-07-23T00:40:06;17.00;99.90
11025;DHT22;22890;51.820;8.682;2022-07-23T00:42:33;16.90;99.90
11025;DHT22;22890;51.820;8.682;2022-07-23T00:45:00;16.90;99.90
11025;DHT22;22890;51.820;8.682;2022-07-23T00:47:27;18.00;99.90
11025;DHT22;22890;51.820;8.682;2022-07-23T00:49:53;16.80;99.90
11025;DHT22;22890;51.820;8.682;2022-07-23T00:52:20;16.80;99.90
11025;DHT22;22890;51.820;8.682;2022-07-23T00:54:47;16.80;99.90
11025;DHT22;22890;51.820;8.682;2022-07-23T00:57:14;16.80;99.90
11025;DHT22;22890;51.820;8.682;2022-07-23T00:59:41;16.80;99.90
11025;DHT22;22890;51.820;8.682;2022-07-23T01:02:08;16.80;99.90
11025;DHT22;22890;51.820;8.682;2022-07-23T01:04:34;16.80;99.90
11025;DHT22;22890;51.820;8.682;2022-07-23T01:07:01;16.80;99.90
11025;DHT22;22890;51.820;8.682;2022-07-23T01:09:28;16.90;99.90
11025;DHT22;22890;51.820;8.682;2022-07-23T01:11:56;16.70;99.90
11025;DHT22;22890;51.820;8.682;2022-07-23T01:14:23;16.70;99.90
11025;DHT22;22890;51.820;8.682;2022-07-23T01:16:50;16.70;99.90
11025;DHT22;22890;51.820;8.682;2022-07-23T01:19:17;16.70;99.90
11025;DHT22;22890;51.820;8.682;2022-07-23T01:21:47;16.70;99.90
11025;DHT22;22890;51.820;8.682;2022-07-23T01:24:14;16.70;99.90
11025;DHT22;22890;51.820;8.682;2022-07-23T01:26:44;16.80;99.90
11025;DHT22;22890;51.820;8.682;2022-07-23T01:29:12;16.70;99.90
11025;DHT22;22890;51.820;8.682;2022-07-23T01:31:39;16.80;99.90
11025;DHT22;22890;51.820;8.682;2022-07-23T01:34:06;16.70;99.90
11025;DHT22;22890;51.820;8.682;2022-07-23T01:36:34;16.70;99.90
11025;DHT22;22890;51.820;8.682;2022-07-23T01:39:03;16.80;99.90
11025;DHT22;22890;51.820;8.682;2022-07-23T01:41:30;16.80;99.90
11025;DHT22;22890;51.820;8.682;2022-07-23T01:43:58;16.90;99.90
11025;DHT22;22890;51.820;8.682;2022-07-23T01:46:25;16.90;99.90
11025;DHT22;22890;51.820;8.682;2022-07-23T01:48:52;16.90;99.90
11025;DHT22;22890;51.820;8.682;2022-07-23T01:51:18;16.90;99.90
11025;DHT22;22890;51.820;8.682;2022-07-23T01:53:45;17.00;99.90
11025;DHT22;22890;51.820;8.682;2022-07-23T01:56:12;16.90;99.90
11025;DHT22;22890;51.820;8.682;2022-07-23T01:58:41;17.00;99.90
11025;DHT22;22890;51.820;8.682;2022-07-23T02:01:08;16.80;99.90
11025;DHT22;22890;51.820;8.682;2022-07-23T02:03:35;16.80;99.90
11025;DHT22;22890;51.820;8.682;2022-07-23T02:06:01;16.80;99.90
11025;DHT22;22890;51.820;8.682;2022-07-23T02:08:28;16.70;99.90
11025;DHT22;22890;51.820;8.682;2022-07-23T02:10:55;16.70;99.90
11025;DHT22;22890;51.820;8.682;2022-07-23T02:13:22;16.70;99.90
11025;DHT22;22890;51.820;8.682;2022-07-23T02:15:48;16.60;99.90
11025;DHT22;22890;51.820;8.682;2022-07-23T02:18:15;16.60;99.90
11025;DHT22;22890;51.820;8.682;2022-07-23T02:20:42;16.60;99.90
11025;DHT22;22890;51.820;8.682;2022-07-23T02:23:11;16.70;99.90
11025;DHT22;22890;51.820;8.682;2022-07-23T02:25:37;16.60;99.90
11025;DHT22;22890;51.820;8.682;2022-07-23T02:28:04;16.60;99.90
11025;DHT22;22890;51.820;8.682;2022-07-23T02:30:31;16.60;99.90
11025;DHT22;22890;51.820;8.682;2022-07-23T02:32:57;16.60;99.90
11025;DHT22;22890;51.820;8.682;2022-07-23T02:35:24;16.60;99.90
11025;DHT22;22890;51.820;8.682;2022-07-23T02:37:51;16.60;99.90
11025;DHT22;22890;51.820;8.682;2022-07-23T02:40:18;16.60;99.90
11025;DHT22;22890;51.820;8.682;2022-07-23T02:42:44;16.70;99.90
11025;DHT22;22890;51.820;8.682;2022-07-23T02:45:12;16.60;99.90
11025;DHT22;22890;51.820;8.682;2022-07-23T02:47:39;16.70;99.90
11025;DHT22;22890;51.820;8.682;2022-07-23T02:50:06;16.70;99.90
11025;DHT22;22890;51.820;8.682;2022-07-23T02:52:33;16.70;99.90
11025;DHT22;22890;51.820;8.682;2022-07-23T02:55:00;16.70;99.90
11025;DHT22;22890;51.820;8.682;2022-07-23T02:57:27;16.70;99.90
11025;DHT22;22890;51.820;8.682;2022-07-23T02:59:53;16.70;99.90
11025;DHT22;22890;51.820;8.682;2022-07-23T03:02:20;16.60;99.90
11025;DHT22;22890;51.820;8.682;2022-07-23T03:04:46;16.60;99.90
11025;DHT22;22890;51.820;8.682;2022-07-23T03:07:13;16.60;99.90
11025;DHT22;22890;51.820;8.682;2022-07-23T03:09:40;16.50;99.90
11025;DHT22;22890;51.820;8.682;2022-07-23T03:12:07;16.50;99.90
11025;DHT22;22890;51.820;8.682;2022-07-23T03:14:40;16.50;99.90
11025;DHT22;22890;51.820;8.682;2022-07-23T03:17:08;16.50;99.90
11025;DHT22;22890;51.820;8.682;2022-07-23T03:19:35;16.50;99.90
11025;DHT22;22890;51.820;8.682;2022-07-23T03:22:02;16.40;99.90
11025;DHT22;22890;51.820;8.682;2022-07-23T03:24:28;16.30;99.90
11025;DHT22;22890;51.820;8.682;2022-07-23T03:27:14;16.20;99.90
11025;DHT22;22890;51.820;8.682;2022-07-23T03:29:40;16.20;99.90
11025;DHT22;22890;51.820;8.682;2022-07-23T03:32:07;16.20;99.90
11025;DHT22;22890;51.820;8.682;2022-07-23T03:34:34;16.20;99.90
11025;DHT22;22890;51.820;8.682;2022-07-23T03:37:00;16.30;99.90
11025;DHT22;22890;51.820;8.682;2022-07-23T03:39:28;16.30;99.90
11025;DHT22;22890;51.820;8.682;2022-07-23T03:41:55;16.30;99.90
11025;DHT22;22890;51.820;8.682;2022-07-23T03:44:22;16.30;99.90
11025;DHT22;22890;51.820;8.682;2022-07-23T03:46:49;16.30;99.90
11025;DHT22;22890;51.820;8.682;2022-07-23T03:49:16;16.30;99.90
11025;DHT22;22890;51.820;8.682;2022-07-23T03:51:42;16.30;99.90
11025;DHT22;22890;51.820;8.682;2022-07-23T03:54:09;16.30;99.90
11025;DHT22;22890;51.820;8.682;2022-07-23T03:56:36;16.30;99.90
11025;DHT22;22890;51.820;8.682;2022-07-23T03:59:03;16.30;99.90
11025;DHT22;22890;51.820;8.682;2022-07-23T04:01:30;16.30;99.90
11025;DHT22;22890;51.820;8.682;2022-07-23T04:03:57;16.30;99.90
11025;DHT22;22890;51.820;8.682;2022-07-23T04:06:24;16.20;99.90
11025;DHT22;22890;51.820;8.682;2022-07-23T04:08:50;16.20;99.90
11025;DHT22;22890;51.820;8.682;2022-07-23T04:11:17;16.20;99.90
11025;DHT22;22890;51.820;8.682;2022-07-23T04:13:44;16.10;99.90
11025;DHT22;22890;51.820;8.682;2022-07-23T04:16:10;16.10;99.90
11025;DHT22;22890;51.820;8.682;2022-07-23T04:18:37;16.10;99.90
11025;DHT22;22890;51.820;8.682;2022-07-23T04:21:04;16.10;99.90
11025;DHT22;22890;51.820;8.682;2022-07-23T04:23:31;16.10;99.90
11025;DHT22;22890;51.820;8.682;2022-07-23T04:25:57;16.10;99.90
11025;DHT22;22890;51.820;8.682;2022-07-23T04:28:24;16.10;99.90
11025;DHT22;22890;51.820;8.682;2022-07-23T04:30:51;16.20;99.90
11025;DHT22;22890;51.820;8.682;2022-07-23T04:33:17;16.20;99.90
11025;DHT22;22890;51.820;8.682;2022-07-23T04:35:44;16.20;99.90
11025;DHT22;22890;51.820;8.682;2022-07-23T04:38:11;16.30;99.90
11025;DHT22;22890;51.820;8.682;2022-07-23T04:40:37;16.40;99.90
11025;DHT22;22890;51.820;8.682;2022-07-23T04:43:04;16.40;99.90
11025;DHT22;22890;51.820;8.682;2022-07-23T04:45:31;16.40;99.90
11025;DHT22;22890;51.820;8.682;2022-07-23T04:47:58;16.50;99.90
11025;DHT22;22890;51.820;8.682;2022-07-23T04:50:24;16.60;99.90
11025;DHT22;22890;51.820;8.682;2022-07-23T04:52:51;16.70;99.90
11025;DHT22;22890;51.820;8.682;2022-07-23T04:55:18;16.70;99.90
11025;DHT22;22890;51.820;8.682;2022-07-23T04:57:45;16.80;99.90
11025;DHT22;22890;51.820;8.682;2022-07-23T05:00:12;16.90;99.90
11025;DHT22;22890;51.820;8.682;2022-07-23T05:02:38;17.00;99.90
11025;DHT22;22890;51.820;8.682;2022-07-23T05:05:05;17.10;99.90
11025;DHT22;22890;51.820;8.682;2022-07-23T05:07:32;17.20;99.90
11025;DHT22;22890;51.820;8.682;2022-07-23T05:09:59;17.40;99.90
11025;DHT22;22890;51.820;8.682;2022-07-23T05:12:25;17.50;99.90
11025;DHT22;22890;51.820;8.682;2022-07-23T05:14:52;17.50;99.90
11025;DHT22;22890;51.820;8.682;2022-07-23T05:17:19;17.70;99.90
11025;DHT22;22890;51.820;8.682;2022-07-23T05:19:45;17.80;99.90
11025;DHT22;22890;51.820;8.682;2022-07-23T05:22:12;17.90;99.90
11025;DHT22;22890;51.820;8.682;2022-07-23T05:24:39;17.90;99.90
11025;DHT22;22890;51.820;8.682;2022-07-23T05:27:05;18.00;99.90
11025;DHT22;22890;51.820;8.682;2022-07-23T05:29:32;18.10;99.90
11025;DHT22;22890;51.820;8.682;2022-07-23T05:31:59;18.10;99.90
11025;DHT22;22890;51.820;8.682;2022-07-23T05:34:26;18.20;99.90
11025;DHT22;22890;51.820;8.682;2022-07-23T05:36:52;18.30;99.90
11025;DHT22;22890;51.820;8.682;2022-07-23T05:39:19;18.40;99.90
11025;DHT22;22890;51.820;8.682;2022-07-23T05:41:45;18.50;99.90
11025;DHT22;22890;51.820;8.682;2022-07-23T05:44:12;18.70;99.90
11025;DHT22;22890;51.820;8.682;2022-07-23T05:46:39;18.70;99.90
11025;DHT22;22890;51.820;8.682;2022-07-23T05:49:06;18.80;99.90
11025;DHT22;22890;51.820;8.682;2022-07-23T05:51:33;18.90;99.90
11025;DHT22;22890;51.820;8.682;2022-07-23T05:54:00;18.90;99.90
11025;DHT22;22890;51.820;8.682;2022-07-23T05:56:26;19.00;99.90
11025;DHT22;22890;51.820;8.682;2022-07-23T05:58:53;19.10;99.90
11025;DHT22;22890;51.820;8.682;2022-07-23T06:01:19;19.10;99.90
11025;DHT22;22890;51.820;8.682;2022-07-23T06:03:46;19.20;99.90
11025;DHT22;22890;51.820;8.682;2022-07-23T06:06:13;19.20;99.90
11025;DHT22;22890;51.820;8.682;2022-07-23T06:08:39;19.30;99.90
11025;DHT22;22890;51.820;8.682;2022-07-23T06:11:06;19.30;99.90
11025;DHT22;22890;51.820;8.682;2022-07-23T06:13:33;19.20;99.90
11025;DHT22;22890;51.820;8.682;2022-07-23T06:15:59;19.20;99.90
11025;DHT22;22890;51.820;8.682;2022-07-23T06:18:26;19.10;99.90
11025;DHT22;22890;51.820;8.682;2022-07-23T06:20:53;19.10;99.90
11025;DHT22;22890;51.820;8.682;2022-07-23T06:23:25;19.00;99.90
11025;DHT22;22890;51.820;8.682;2022-07-23T06:25:52;19.00;99.90
11025;DHT22;22890;51.820;8.682;2022-07-23T06:28:19;18.90;99.90
11025;DHT22;22890;51.820;8.682;2022-07-23T06:30:46;18.90;99.90
11025;DHT22;22890;51.820;8.682;2022-07-23T06:33:12;18.90;99.90
11025;DHT22;22890;51.820;8.682;2022-07-23T06:35:39;18.90;99.90
11025;DHT22;22890;51.820;8.682;2022-07-23T06:38:05;19.00;99.90
11025;DHT22;22890;51.820;8.682;2022-07-23T06:40:33;19.00;99.90
11025;DHT22;22890;51.820;8.682;2022-07-23T06:43:00;19.20;99.90
11025;DHT22;22890;51.820;8.682;2022-07-23T06:45:27;19.20;99.90
11025;DHT22;22890;51.820;8.682;2022-07-23T06:47:53;19.20;99.90
11025;DHT22;22890;51.820;8.682;2022-07-23T06:50:20;19.10;99.90
11025;DHT22;22890;51.820;8.682;2022-07-23T06:52:47;19.10;99.90
11025;DHT22;22890;51.820;8.682;2022-07-23T06:55:14;19.00;99.90
11025;DHT22;22890;51.820;8.682;2022-07-23T06:57:41;19.10;99.90
11025;DHT22;22890;51.820;8.682;2022-07-23T07:00:08;19.10;99.90
11025;DHT22;22890;51.820;8.682;2022-07-23T07:02:35;19.20;99.90
11025;DHT22;22890;51.820;8.682;2022-07-23T07:05:02;19.30;99.90
11025;DHT22;22890;51.820;8.682;2022-07-23T07:07:32;19.50;99.90
11025;DHT22;22890;51.820;8.682;2022-07-23T07:09:59;19.60;99.90
11025;DHT22;22890;51.820;8.682;2022-07-23T07:12:26;19.60;99.90
11025;DHT22;22890;51.820;8.682;2022-07-23T07:14:52;19.60;99.90
11025;DHT22;22890;51.820;8.682;2022-07-23T07:17:20;19.60;99.90
11025;DHT22;22890;51.820;8.682;2022-07-23T07:19:46;19.70;99.90
11025;DHT22;22890;51.820;8.682;2022-07-23T07:22:13;19.70;99.90
11025;DHT22;22890;51.820;8.682;2022-07-23T07:24:40;19.70;99.90
11025;DHT22;22890;51.820;8.682;2022-07-23T07:27:06;19.90;99.90
11025;DHT22;22890;51.820;8.682;2022-07-23T07:29:33;20.10;99.90
11025;DHT22;22890;51.820;8.682;2022-07-23T07:31:59;20.20;99.90
11025;DHT22;22890;51.820;8.682;2022-07-23T07:34:26;20.30;99.90
11025;DHT22;22890;51.820;8.682;2022-07-23T07:36:53;20.30;99.90
11025;DHT22;22890;51.820;8.682;2022-07-23T07:39:19;20.30;99.90
11025;DHT22;22890;51.820;8.682;2022-07-23T07:41:46;20.30;99.90
11025;DHT22;22890;51.820;8.682;2022-07-23T07:44:12;20.40;99.90
11025;DHT22;22890;51.820;8.682;2022-07-23T07:46:39;20.50;99.90
11025;DHT22;22890;51.820;8.682;2022-07-23T07:49:06;20.40;99.90
11025;DHT22;22890;51.820;8.682;2022-07-23T07:51:33;20.40;99.90
11025;DHT22;22890;51.820;8.682;2022-07-23T07:54:00;20.40;99.90
11025;DHT22;22890;51.820;8.682;2022-07-23T07:56:28;20.30;99.90
11025;DHT22;22890;51.820;8.682;2022-07-23T07:58:55;20.40;99.90
11025;DHT22;22890;51.820;8.682;2022-07-23T08:01:22;20.60;99.90
11025;DHT22;22890;51.820;8.682;2022-07-23T08:03:51;20.60;99.90
11025;DHT22;22890;51.820;8.682;2022-07-23T08:06:18;20.70;99.90
11025;DHT22;22890;51.820;8.682;2022-07-23T08:08:46;20.70;99.90
11025;DHT22;22890;51.820;8.682;2022-07-23T08:11:13;20.70;99.90
11025;DHT22;22890;51.820;8.682;2022-07-23T08:13:40;20.60;99.90
11025;DHT22;22890;51.820;8.682;2022-07-23T08:16:07;20.40;99.90
11025;DHT22;22890;51.820;8.682;2022-07-23T08:18:34;20.30;99.90
11025;DHT22;22890;51.820;8.682;2022-07-23T08:21:00;20.30;99.90
11025;DHT22;22890;51.820;8.682;2022-07-23T08:23:27;20.30;99.90
11025;DHT22;22890;51.820;8.682;2022-07-23T08:25:56;20.30;99.90
11025;DHT22;22890;51.820;8.682;2022-07-23T08:28:23;20.30;99.90
11025;DHT22;22890;51.820;8.682;2022-07-23T08:30:50;20.30;99.90
11025;DHT22;22890;51.820;8.682;2022-07-23T08:33:18;20.30;99.90
11025;DHT22;22890;51.820;8.682;2022-07-23T08:36:01;20.40;99.90
11025;DHT22;22890;51.820;8.682;2022-07-23T08:38:30;20.50;99.90
11025;DHT22;22890;51.820;8.682;2022-07-23T08:40:57;20.60;99.90
11025;DHT22;22890;51.820;8.682;2022-07-23T08:43:27;20.50;99.90
11025;DHT22;22890;51.820;8.682;2022-07-23T08:45:55;20.50;99.90
11025;DHT22;22890;51.820;8.682;2022-07-23T08:48:25;20.40;99.90
11025;DHT22;22890;51.820;8.682;2022-07-23T08:50:55;20.30;99.90
11025;DHT22;22890;51.820;8.682;2022-07-23T08:53:25;20.20;99.90
11025;DHT22;22890;51.820;8.682;2022-07-23T08:55:55;20.20;99.90
11025;DHT22;22890;51.820;8.682;2022-07-23T08:58:22;20.30;99.90
11025;DHT22;22890;51.820;8.682;2022-07-23T09:00:53;20.30;99.90
11025;DHT22;22890;51.820;8.682;2022-07-23T09:03:23;20.40;99.90
11025;DHT22;22890;51.820;8.682;2022-07-23T09:05:52;20.50;99.90
11025;DHT22;22890;51.820;8.682;2022-07-23T09:08:21;20.60;99.90
11025;DHT22;22890;51.820;8.682;2022-07-23T09:10:59;20.50;99.90
11025;DHT22;22890;51.820;8.682;2022-07-23T09:16:07;20.50;99.90
11025;DHT22;22890;51.820;8.682;2022-07-23T09:18:39;20.50;99.90
11025;DHT22;22890;51.820;8.682;2022-07-23T09:21:30;20.50;99.90
11025;DHT22;22890;51.820;8.682;2022-07-23T09:24:00;20.50;99.90
11025;DHT22;22890;51.820;8.682;2022-07-23T09:26:38;20.50;99.90
11025;DHT22;22890;51.820;8.682;2022-07-23T09:29:11;20.60;99.90
11025;DHT22;22890;51.820;8.682;2022-07-23T09:31:45;20.70;99.90
11025;DHT22;22890;51.820;8.682;2022-07-23T09:34:25;20.70;99.90
11025;DHT22;22890;51.820;8.682;2022-07-23T09:36:54;20.20;99.90
11025;DHT22;22890;51.820;8.682;2022-07-23T09:39:27;20.80;99.90
11025;DHT22;22890;51.820;8.682;2022-07-23T09:41:54;20.80;99.90
11025;DHT22;22890;51.820;8.682;2022-07-23T09:44:21;20.70;99.90
11025;DHT22;22890;51.820;8.682;2022-07-23T09:46:58;19.50;99.90
11025;DHT22;22890;51.820;8.682;2022-07-23T09:49:26;20.80;99.90
11025;DHT22;22890;51.820;8.682;2022-07-23T09:51:56;20.90;99.90
11025;DHT22;22890;51.820;8.682;2022-07-23T09:54:30;20.80;99.90
11025;DHT22;22890;51.820;8.682;2022-07-23T09:57:06;20.60;99.90
11025;DHT22;22890;51.820;8.682;2022-07-23T09:59:37;20.60;99.90
11025;DHT22;22890;51.820;8.682;2022-07-23T10:02:06;20.70;99.90
11025;DHT22;22890;51.820;8.682;2022-07-23T10:04:35;20.80;99.90
11025;DHT22;22890;51.820;8.682;2022-07-23T10:07:06;20.90;99.90
11025;DHT22;22890;51.820;8.682;2022-07-23T10:09:36;21.00;99.90
11025;DHT22;22890;51.820;8.682;2022-07-23T10:12:05;21.10;99.90
11025;DHT22;22890;51.820;8.682;2022-07-23T10:14:46;21.20;99.90
11025;DHT22;22890;51.820;8.682;2022-07-23T10:17:14;21.40;99.90
11025;DHT22;22890;51.820;8.682;2022-07-23T10:19:41;21.50;99.90
11025;DHT22;22890;51.820;8.682;2022-07-23T10:22:14;21.50;99.90
11025;DHT22;22890;51.820;8.682;2022-07-23T10:24:50;21.50;99.90
11025;DHT22;22890;51.820;8.682;2022-07-23T10:31:03;21.60;99.90
11025;DHT22;22890;51.820;8.682;2022-07-23T10:33:58;21.60;99.90
11025;DHT22;22890;51.820;8.682;2022-07-23T10:39:24;21.70;99.90
11025;DHT22;22890;51.820;8.682;2022-07-23T10:41:51;21.70;99.90
11025;DHT22;22890;51.820;8.682;2022-07-23T10:44:21;21.60;99.90
11025;DHT22;22890;51.820;8.682;2022-07-23T10:49:35;21.60;99.90
11025;DHT22;22890;51.820;8.682;2022-07-23T10:54:41;21.70;99.90
11025;DHT22;22890;51.820;8.682;2022-07-23T10:57:09;21.70;99.90
11025;DHT22;22890;51.820;8.682;2022-07-23T11:02:42;21.80;99.90
11025;DHT22;22890;51.820;8.682;2022-07-23T11:05:13;21.90;99.90
11025;DHT22;22890;51.820;8.682;2022-07-23T11:16:04;22.10;99.90
11025;DHT22;22890;51.820;8.682;2022-07-23T11:24:04;22.20;99.90
11025;DHT22;22890;51.820;8.682;2022-07-23T11:32:19;22.20;99.90
11025;DHT22;22890;51.820;8.682;2022-07-23T11:34:47;22.30;99.90
11025;DHT22;22890;51.820;8.682;2022-07-23T11:37:37;22.40;99.90
11025;DHT22;22890;51.820;8.682;2022-07-23T11:40:08;22.40;99.90
11025;DHT22;22890;51.820;8.682;2022-07-23T11:42:37;22.40;99.90
11025;DHT22;22890;51.820;8.682;2022-07-23T11:45:08;22.50;99.90
11025;DHT22;22890;51.820;8.682;2022-07-23T11:47:35;22.40;99.90
11025;DHT22;22890;51.820;8.682;2022-07-23T11:50:05;22.40;99.90
11025;DHT22;22890;51.820;8.682;2022-07-23T11:52:33;22.50;99.90
11025;DHT22;22890;51.820;8.682;2022-07-23T11:55:05;22.40;99.90
11025;DHT22;22890;51.820;8.682;2022-07-23T11:57:35;22.50;99.90
11025;DHT22;22890;51.820;8.682;2022-07-23T12:00:30;22.50;99.90
11025;DHT22;22890;51.820;8.682;2022-07-23T12:03:02;22.60;99.90
11025;DHT22;22890;51.820;8.682;2022-07-23T12:05:32;22.60;99.90
11025;DHT22;22890;51.820;8.682;2022-07-23T12:08:00;22.50;99.90
11025;DHT22;22890;51.820;8.682;2022-07-23T12:10:29;22.60;99.90
11025;DHT22;22890;51.820;8.682;2022-07-23T12:13:01;22.70;99.90
11025;DHT22;22890;51.820;8.682;2022-07-23T12:15:32;22.70;99.90
11025;DHT22;22890;51.820;8.682;2022-07-23T12:18:02;22.70;99.90
11025;DHT22;22890;51.820;8.682;2022-07-23T12:20:33;22.80;99.90
11025;DHT22;22890;51.820;8.682;2022-07-23T12:23:02;22.90;99.90
11025;DHT22;22890;51.820;8.682;2022-07-23T12:25:32;22.90;99.90
11025;DHT22;22890;51.820;8.682;2022-07-23T12:30:39;23.00;99.90
11025;DHT22;22890;51.820;8.682;2022-07-23T12:33:09;23.00;99.90
11025;DHT22;22890;51.820;8.682;2022-07-23T12:35:41;22.90;99.90
11025;DHT22;22890;51.820;8.682;2022-07-23T12:38:10;22.90;99.90
11025;DHT22;22890;51.820;8.682;2022-07-23T12:40:45;22.90;99.90
11025;DHT22;22890;51.820;8.682;2022-07-23T12:43:29;22.90;99.90
11025;DHT22;22890;51.820;8.682;2022-07-23T12:48:33;23.20;99.90
11025;DHT22;22890;51.820;8.682;2022-07-23T12:51:08;23.20;99.90
11025;DHT22;22890;51.820;8.682;2022-07-23T12:53:49;23.20;99.90
11025;DHT22;22890;51.820;8.682;2022-07-23T12:56:26;23.20;99.90
11025;DHT22;22890;51.820;8.682;2022-07-23T12:58:58;23.20;99.90
11025;DHT22;22890;51.820;8.682;2022-07-23T13:01:29;23.20;99.90
11025;DHT22;22890;51.820;8.682;2022-07-23T13:09:09;23.20;99.90
11025;DHT22;22890;51.820;8.682;2022-07-23T13:11:36;23.30;99.90
11025;DHT22;22890;51.820;8.682;2022-07-23T13:14:03;23.30;99.90
11025;DHT22;22890;51.820;8.682;2022-07-23T13:16:32;23.20;99.90
11025;DHT22;22890;51.820;8.682;2022-07-23T13:19:00;23.20;99.90
11025;DHT22;22890;51.820;8.682;2022-07-23T13:21:28;23.30;99.90
11025;DHT22;22890;51.820;8.682;2022-07-23T13:23:56;23.30;99.90
11025;DHT22;22890;51.820;8.682;2022-07-23T13:26:24;23.20;99.90
11025;DHT22;22890;51.820;8.682;2022-07-23T13:28:50;23.20;99.90
11025;DHT22;22890;51.820;8.682;2022-07-23T13:31:17;23.20;99.90
11025;DHT22;22890;51.820;8.682;2022-07-23T13:33:44;23.20;99.90
11025;DHT22;22890;51.820;8.682;2022-07-23T13:36:14;23.20;99.90
11025;DHT22;22890;51.820;8.682;2022-07-23T13:38:41;23.10;99.90
11025;DHT22;22890;51.820;8.682;2022-07-23T13:41:07;23.10;99.90
11025;DHT22;22890;51.820;8.682;2022-07-23T13:43:38;23.10;99.90
11025;DHT22;22890;51.820;8.682;2022-07-23T13:46:04;23.20;99.90
11025;DHT22;22890;51.820;8.682;2022-07-23T13:48:32;23.20;99.90
11025;DHT22;22890;51.820;8.682;2022-07-23T13:50:58;23.20;99.90
11025;DHT22;22890;51.820;8.682;2022-07-23T13:53:26;23.30;99.90
11025;DHT22;22890;51.820;8.682;2022-07-23T13:55:53;23.30;99.90
11025;DHT22;22890;51.820;8.682;2022-07-23T13:58:21;23.40;99.90
11025;DHT22;22890;51.820;8.682;2022-07-23T14:00:52;23.50;99.90
11025;DHT22;22890;51.820;8.682;2022-07-23T14:03:20;23.50;99.90
11025;DHT22;22890;51.820;8.682;2022-07-23T14:05:50;23.50;99.90
11025;DHT22;22890;51.820;8.682;2022-07-23T14:08:18;23.50;99.90
11025;DHT22;22890;51.820;8.682;2022-07-23T14:10:48;23.50;99.90
11025;DHT22;22890;51.820;8.682;2022-07-23T14:13:14;23.50;99.90
11025;DHT22;22890;51.820;8.682;2022-07-23T14:15:42;23.50;99.90
11025;DHT22;22890;51.820;8.682;2022-07-23T14:18:09;23.60;99.90
11025;DHT22;22890;51.820;8.682;2022-07-23T14:20:36;23.60;99.90
11025;DHT22;22890;51.820;8.682;2022-07-23T14:23:02;23.60;99.90
11025;DHT22;22890;51.820;8.682;2022-07-23T14:25:31;23.70;99.90
11025;DHT22;22890;51.820;8.682;2022-07-23T14:27:59;23.70;99.90
11025;DHT22;22890;51.820;8.682;2022-07-23T14:30:26;23.80;99.90
11025;DHT22;22890;51.820;8.682;2022-07-23T14:33:00;23.80;99.90
11025;DHT22;22890;51.820;8.682;2022-07-23T14:35:26;23.80;99.90
11025;DHT22;22890;51.820;8.682;2022-07-23T14:37:53;23.80;99.90
11025;DHT22;22890;51.820;8.682;2022-07-23T14:40:20;23.80;99.90
11025;DHT22;22890;51.820;8.682;2022-07-23T14:42:49;23.90;99.90
11025;DHT22;22890;51.820;8.682;2022-07-23T14:45:15;23.80;99.90
11025;DHT22;22890;51.820;8.682;2022-07-23T14:47:45;23.80;99.90
11025;DHT22;22890;51.820;8.682;2022-07-23T14:50:13;23.80;99.90
11025;DHT22;22890;51.820;8.682;2022-07-23T14:52:40;23.90;99.90
11025;DHT22;22890;51.820;8.682;2022-07-23T14:55:07;24.00;99.90
11025;DHT22;22890;51.820;8.682;2022-07-23T14:57:34;24.00;99.90
11025;DHT22;22890;51.820;8.682;2022-07-23T15:00:01;24.10;99.90
11025;DHT22;22890;51.820;8.682;2022-07-23T15:02:28;24.20;99.90
11025;DHT22;22890;51.820;8.682;2022-07-23T15:04:55;24.20;99.90
11025;DHT22;22890;51.820;8.682;2022-07-23T15:07:24;24.20;99.90
11025;DHT22;22890;51.820;8.682;2022-07-23T15:09:53;24.30;99.90
11025;DHT22;22890;51.820;8.682;2022-07-23T15:12:19;24.30;99.90
11025;DHT22;22890;51.820;8.682;2022-07-23T15:14:48;24.30;99.90
11025;DHT22;22890;51.820;8.682;2022-07-23T15:17:15;24.30;99.90
11025;DHT22;22890;51.820;8.682;2022-07-23T15:19:42;24.30;99.90
11025;DHT22;22890;51.820;8.682;2022-07-23T15:22:08;24.30;99.90
11025;DHT22;22890;51.820;8.682;2022-07-23T15:24:35;24.30;99.90
11025;DHT22;22890;51.820;8.682;2022-07-23T15:27:02;24.40;99.90
11025;DHT22;22890;51.820;8.682;2022-07-23T15:29:30;24.40;99.90
11025;DHT22;22890;51.820;8.682;2022-07-23T15:31:56;24.40;99.90
11025;DHT22;22890;51.820;8.682;2022-07-23T15:34:25;24.50;99.90
11025;DHT22;22890;51.820;8.682;2022-07-23T15:36:52;24.50;99.90
11025;DHT22;22890;51.820;8.682;2022-07-23T15:39:19;24.50;99.90
11025;DHT22;22890;51.820;8.682;2022-07-23T15:41:46;24.60;99.90
11025;DHT22;22890;51.820;8.682;2022-07-23T15:44:14;24.60;99.90
11025;DHT22;22890;51.820;8.682;2022-07-23T15:47:01;24.60;99.90
11025;DHT22;22890;51.820;8.682;2022-07-23T15:49:28;24.60;99.90
11025;DHT22;22890;51.820;8.682;2022-07-23T15:51:55;24.50;99.90
11025;DHT22;22890;51.820;8.682;2022-07-23T15:54:21;24.60;99.90
11025;DHT22;22890;51.820;8.682;2022-07-23T15:56:48;24.60;99.90
11025;DHT22;22890;51.820;8.682;2022-07-23T15:59:15;24.60;99.90
11025;DHT22;22890;51.820;8.682;2022-07-23T16:01:42;24.60;99.90
11025;DHT22;22890;51.820;8.682;2022-07-23T16:04:09;24.60;99.90
11025;DHT22;22890;51.820;8.682;2022-07-23T16:06:36;24.60;99.90
11025;DHT22;22890;51.820;8.682;2022-07-23T16:09:03;24.60;99.90
11025;DHT22;22890;51.820;8.682;2022-07-23T16:11:33;24.60;99.90
11025;DHT22;22890;51.820;8.682;2022-07-23T16:14:00;24.50;99.90
11025;DHT22;22890;51.820;8.682;2022-07-23T16:16:27;24.50;99.90
11025;DHT22;22890;51.820;8.682;2022-07-23T16:18:57;24.50;99.90
11025;DHT22;22890;51.820;8.682;2022-07-23T16:21:24;24.50;99.90
11025;DHT22;22890;51.820;8.682;2022-07-23T16:23:51;24.50;99.90